createdAt,value
2022-12-11T13:03:57.708Z,2.30
2022-12-11T13:08:05.551Z,2.52
2022-12-11T13:12:17.353Z,2.72
2022-12-11T13:16:19.071Z,2.83
2022-12-11T13:20:29.240Z,2.89
2022-12-11T13:24:33.602Z,2.95
2022-12-11T13:28:38.336Z,2.98
2022-12-11T13:32:42.454Z,2.98
2022-12-11T13:36:53.526Z,2.98
2022-12-11T13:40:56.836Z,3.01
2022-12-11T13:45:00.074Z,2.98
2022-12-11T13:49:04.986Z,2.96
2022-12-11T13:53:06.808Z,2.92
2022-12-11T13:57:08.428Z,2.91
2022-12-11T14:01:15.249Z,2.86
2022-12-11T14:05:17.705Z,2.81
2022-12-11T14:09:24.830Z,2.77
2022-12-11T14:13:33.281Z,2.73
2022-12-11T14:17:35.478Z,2.67
2022-12-11T14:21:37.443Z,2.64
2022-12-11T14:25:39.275Z,2.60
2022-12-11T14:29:40.959Z,2.56
2022-12-11T14:33:51.213Z,2.53
2022-12-11T14:37:54.460Z,2.51
2022-12-11T14:42:04.749Z,2.51
2022-12-11T14:46:16.766Z,2.47
2022-12-11T14:50:23.741Z,2.44
2022-12-11T14:54:37.937Z,2.41
2022-12-11T14:58:44.804Z,2.37
2022-12-11T15:03:07.702Z,2.29
2022-12-11T15:07:22.259Z,2.23
2022-12-11T15:11:33.383Z,2.21
2022-12-11T15:15:45.093Z,2.18
2022-12-11T15:19:51.257Z,2.17
2022-12-11T15:23:55.750Z,2.16
2022-12-11T15:28:00.693Z,2.15
2022-12-11T15:32:08.512Z,2.14
2022-12-11T15:36:39.935Z,2.13
2022-12-11T15:40:41.636Z,2.14
2022-12-11T15:44:43.473Z,2.13
2022-12-11T15:48:45.217Z,2.13
2022-12-11T15:52:47.434Z,2.12
2022-12-11T15:56:49.163Z,2.11
2022-12-11T16:00:51.592Z,2.10
2022-12-11T16:04:54.115Z,2.09
2022-12-11T16:08:56.035Z,2.08
2022-12-11T16:12:59.831Z,2.11
2022-12-11T16:17:01.600Z,2.10
2022-12-11T16:21:06.512Z,2.07
2022-12-11T16:25:08.481Z,2.07
2022-12-11T16:29:11.576Z,2.04
2022-12-11T16:33:13.898Z,2.02
2022-12-11T16:37:15.744Z,2.02
2022-12-11T16:41:17.474Z,1.97
2022-12-11T16:45:22.289Z,1.93
2022-12-11T16:49:24.162Z,1.93
2022-12-11T16:53:26.150Z,1.91
2022-12-11T16:57:28.312Z,1.89
2022-12-11T17:01:30.183Z,1.85
2022-12-11T17:05:31.962Z,1.83
2022-12-11T17:09:35.267Z,1.82
2022-12-11T17:13:37.397Z,1.81
2022-12-11T17:17:39.074Z,1.81
2022-12-11T17:21:40.833Z,1.79
2022-12-11T17:25:44.764Z,1.78
2022-12-11T17:29:49.519Z,1.78
2022-12-11T17:33:53.812Z,1.75
2022-12-11T17:37:55.569Z,1.76
2022-12-11T17:41:57.270Z,1.74
2022-12-11T17:45:58.994Z,1.76
2022-12-11T17:50:01.037Z,1.73
2022-12-11T17:54:02.746Z,1.73
2022-12-11T17:58:05.590Z,1.70
2022-12-11T18:02:07.300Z,1.66
2022-12-11T18:06:12.875Z,1.67
2022-12-11T18:10:14.519Z,1.67
2022-12-11T18:14:17.623Z,1.66
2022-12-11T18:18:19.487Z,1.65
2022-12-11T18:22:21.306Z,1.67
2022-12-11T18:26:23.646Z,1.65
2022-12-11T18:30:26.244Z,1.66
2022-12-11T18:34:28.204Z,1.66
2022-12-11T18:38:30.123Z,1.67
2022-12-11T18:42:33.449Z,1.65
2022-12-11T18:46:35.612Z,1.65
2022-12-11T18:50:37.443Z,1.65
2022-12-11T18:54:39.173Z,1.65
2022-12-11T18:58:41.077Z,1.66
2022-12-11T19:02:42.943Z,1.65
2022-12-11T19:06:44.684Z,1.66
2022-12-11T19:10:47.626Z,1.66
2022-12-11T19:14:49.381Z,1.67
2022-12-11T19:18:51.644Z,1.70
2022-12-11T19:22:53.377Z,1.68
2022-12-11T19:26:55.083Z,1.69
2022-12-11T19:30:56.854Z,1.68
2022-12-11T19:34:58.624Z,1.67
2022-12-11T19:39:02.152Z,1.65
2022-12-11T19:43:05.259Z,1.66
2022-12-11T19:47:07.203Z,1.67
2022-12-11T19:51:15.206Z,1.67
2022-12-11T19:55:16.965Z,1.65
2022-12-11T19:59:18.849Z,1.64
2022-12-11T20:03:20.789Z,1.61
2022-12-11T20:07:27.452Z,1.59
2022-12-11T20:11:33.350Z,1.56
2022-12-11T20:15:39.387Z,1.55
2022-12-11T20:19:41.633Z,1.57
2022-12-11T20:23:44.220Z,1.52
2022-12-11T20:27:46.275Z,1.52
2022-12-11T20:31:50.600Z,1.53
2022-12-11T20:35:52.345Z,1.53
2022-12-11T20:39:54.046Z,1.53
2022-12-11T20:43:55.764Z,1.52
2022-12-11T20:47:57.426Z,1.53
2022-12-11T20:51:59.857Z,1.49
2022-12-11T20:56:02.005Z,1.50
2022-12-11T21:00:06.013Z,1.47
2022-12-11T21:04:07.977Z,1.45
2022-12-11T21:08:10.349Z,1.43
2022-12-11T21:12:12.082Z,1.43
2022-12-11T21:16:13.902Z,1.42
2022-12-11T21:20:15.607Z,1.43
2022-12-11T21:24:22.863Z,1.44
2022-12-11T21:28:24.629Z,1.44
2022-12-11T21:32:27.527Z,1.45
2022-12-11T21:36:31.813Z,1.45
2022-12-11T21:40:34.279Z,1.41
2022-12-11T21:48:57.734Z,1.35
2022-12-11T21:52:59.477Z,1.34
2022-12-11T21:57:01.449Z,1.33
2022-12-11T22:01:04.340Z,1.31
2022-12-11T22:05:06.779Z,1.29
2022-12-11T22:09:09.031Z,1.30
2022-12-11T22:13:10.848Z,1.28
2022-12-11T22:17:12.538Z,1.27
2022-12-11T22:21:15.273Z,1.27
2022-12-11T22:25:16.969Z,1.27
2022-12-11T22:29:18.770Z,1.25
2022-12-11T22:33:20.661Z,1.26
2022-12-11T22:37:22.378Z,1.25
2022-12-11T22:41:27.452Z,1.28
2022-12-11T22:45:29.189Z,1.27
2022-12-11T22:49:31.000Z,1.27
2022-12-11T22:53:32.954Z,1.29
2022-12-11T22:57:36.428Z,1.28
2022-12-11T23:01:38.158Z,1.28
2022-12-11T23:05:41.095Z,1.26
2022-12-11T23:09:42.838Z,1.24
2022-12-11T23:13:44.728Z,1.24
2022-12-11T23:17:46.412Z,1.27
2022-12-11T23:21:48.422Z,1.24
2022-12-11T23:25:51.086Z,1.25
2022-12-11T23:29:52.767Z,1.23
2022-12-11T23:33:54.502Z,1.24
2022-12-11T23:37:56.352Z,1.26
2022-12-11T23:41:58.292Z,1.27
2022-12-11T23:46:00.187Z,1.27
2022-12-11T23:50:01.959Z,1.30
2022-12-11T23:54:03.704Z,1.31
2022-12-11T23:58:05.564Z,1.30
